sensor_id;sensor_type;location;lat;lon;timestamp;P1;durP1;ratioP1;P2;durP2;ratioP2
58208;SDS011;44006;52.028;4.696;2023-01-16T00:00:41;13.05;;;8.20;;
58208;SDS011;44006;52.028;4.696;2023-01-16T00:03:07;11.15;;;7.63;;
58208;SDS011;44006;52.028;4.696;2023-01-16T00:05:32;13.20;;;7.75;;
58208;SDS011;44006;52.028;4.696;2023-01-16T00:07:58;11.40;;;6.65;;
58208;SDS011;44006;52.028;4.696;2023-01-16T00:10:23;9.82;;;6.43;;
58208;SDS011;44006;52.028;4.696;2023-01-16T00:12:48;8.13;;;5.70;;
58208;SDS011;44006;52.028;4.696;2023-01-16T00:15:13;8.02;;;5.40;;
58208;SDS011;44006;52.028;4.696;2023-01-16T00:17:39;9.18;;;5.60;;
58208;SDS011;44006;52.028;4.696;2023-01-16T00:20:05;8.02;;;5.40;;
58208;SDS011;44006;52.028;4.696;2023-01-16T00:22:30;9.07;;;5.15;;
58208;SDS011;44006;52.028;4.696;2023-01-16T00:24:56;10.48;;;4.57;;
58208;SDS011;44006;52.028;4.696;2023-01-16T00:27:21;10.23;;;4.80;;
58208;SDS011;44006;52.028;4.696;2023-01-16T00:29:46;11.75;;;4.28;;
58208;SDS011;44006;52.028;4.696;2023-01-16T00:32:11;8.70;;;4.03;;
58208;SDS011;44006;52.028;4.696;2023-01-16T00:34:38;7.80;;;3.80;;
58208;SDS011;44006;52.028;4.696;2023-01-16T00:37:03;6.05;;;3.67;;
58208;SDS011;44006;52.028;4.696;2023-01-16T00:39:28;7.53;;;3.87;;
58208;SDS011;44006;52.028;4.696;2023-01-16T00:41:54;11.30;;;3.90;;
58208;SDS011;44006;52.028;4.696;2023-01-16T00:44:19;8.27;;;3.83;;
58208;SDS011;44006;52.028;4.696;2023-01-16T00:46:44;10.10;;;4.45;;
58208;SDS011;44006;52.028;4.696;2023-01-16T00:49:09;10.00;;;4.85;;
58208;SDS011;44006;52.028;4.696;2023-01-16T00:51:35;9.75;;;5.68;;
58208;SDS011;44006;52.028;4.696;2023-01-16T00:54:00;13.38;;;6.20;;
58208;SDS011;44006;52.028;4.696;2023-01-16T00:56:25;12.88;;;6.75;;
58208;SDS011;44006;52.028;4.696;2023-01-16T00:58:50;11.07;;;6.65;;
58208;SDS011;44006;52.028;4.696;2023-01-16T01:01:15;15.05;;;7.05;;
58208;SDS011;44006;52.028;4.696;2023-01-16T01:03:41;13.00;;;7.03;;
58208;SDS011;44006;52.028;4.696;2023-01-16T01:06:07;13.13;;;6.38;;
58208;SDS011;44006;52.028;4.696;2023-01-16T01:08:32;14.98;;;6.82;;
58208;SDS011;44006;52.028;4.696;2023-01-16T01:10:57;16.23;;;6.72;;
58208;SDS011;44006;52.028;4.696;2023-01-16T01:13:22;12.85;;;6.95;;
58208;SDS011;44006;52.028;4.696;2023-01-16T01:15:47;14.07;;;7.45;;
58208;SDS011;44006;52.028;4.696;2023-01-16T01:18:13;14.55;;;7.18;;
58208;SDS011;44006;52.028;4.696;2023-01-16T01:20:38;12.52;;;7.10;;
58208;SDS011;44006;52.028;4.696;2023-01-16T01:23:03;15.75;;;7.20;;
58208;SDS011;44006;52.028;4.696;2023-01-16T01:25:28;14.73;;;7.22;;
58208;SDS011;44006;52.028;4.696;2023-01-16T01:27:54;14.77;;;6.72;;
58208;SDS011;44006;52.028;4.696;2023-01-16T01:30:19;16.02;;;7.50;;
58208;SDS011;44006;52.028;4.696;2023-01-16T01:32:44;16.73;;;7.82;;
58208;SDS011;44006;52.028;4.696;2023-01-16T01:35:09;14.32;;;7.18;;
58208;SDS011;44006;52.028;4.696;2023-01-16T01:37:35;15.80;;;7.32;;
58208;SDS011;44006;52.028;4.696;2023-01-16T01:40:00;17.80;;;8.30;;
58208;SDS011;44006;52.028;4.696;2023-01-16T01:42:26;15.32;;;8.15;;
58208;SDS011;44006;52.028;4.696;2023-01-16T01:45:17;18.35;;;8.02;;
58208;SDS011;44006;52.028;4.696;2023-01-16T01:47:51;16.75;;;8.27;;
58208;SDS011;44006;52.028;4.696;2023-01-16T01:50:22;14.00;;;7.40;;
58208;SDS011;44006;52.028;4.696;2023-01-16T01:52:49;19.45;;;9.30;;
58208;SDS011;44006;52.028;4.696;2023-01-16T01:55:14;18.02;;;7.95;;
58208;SDS011;44006;52.028;4.696;2023-01-16T01:57:42;14.20;;;6.88;;
58208;SDS011;44006;52.028;4.696;2023-01-16T02:00:11;16.45;;;6.50;;
58208;SDS011;44006;52.028;4.696;2023-01-16T02:02:37;15.65;;;6.55;;
58208;SDS011;44006;52.028;4.696;2023-01-16T02:05:04;15.07;;;6.15;;
58208;SDS011;44006;52.028;4.696;2023-01-16T02:07:31;17.65;;;5.78;;
58208;SDS011;44006;52.028;4.696;2023-01-16T02:10:05;14.77;;;5.28;;
58208;SDS011;44006;52.028;4.696;2023-01-16T02:12:33;14.15;;;4.47;;
58208;SDS011;44006;52.028;4.696;2023-01-16T02:15:00;9.65;;;4.25;;
58208;SDS011;44006;52.028;4.696;2023-01-16T02:17:25;10.45;;;4.30;;
58208;SDS011;44006;52.028;4.696;2023-01-16T02:35:30;14.25;;;5.88;;
58208;SDS011;44006;52.028;4.696;2023-01-16T02:38:10;11.77;;;5.35;;
58208;SDS011;44006;52.028;4.696;2023-01-16T02:40:44;13.82;;;6.63;;
58208;SDS011;44006;52.028;4.696;2023-01-16T02:48:25;12.18;;;6.57;;
58208;SDS011;44006;52.028;4.696;2023-01-16T02:54:07;14.57;;;6.38;;
58208;SDS011;44006;52.028;4.696;2023-01-16T02:56:07;15.57;;;7.32;;
58208;SDS011;44006;52.028;4.696;2023-01-16T02:58:35;17.25;;;7.18;;
58208;SDS011;44006;52.028;4.696;2023-01-16T03:01:00;17.60;;;7.78;;
58208;SDS011;44006;52.028;4.696;2023-01-16T03:06:06;15.57;;;7.18;;
58208;SDS011;44006;52.028;4.696;2023-01-16T03:08:42;15.57;;;7.57;;
58208;SDS011;44006;52.028;4.696;2023-01-16T03:11:12;12.57;;;6.70;;
58208;SDS011;44006;52.028;4.696;2023-01-16T03:18:50;13.00;;;6.43;;
58208;SDS011;44006;52.028;4.696;2023-01-16T03:23:53;13.20;;;5.18;;
58208;SDS011;44006;52.028;4.696;2023-01-16T03:26:30;12.15;;;5.05;;
58208;SDS011;44006;52.028;4.696;2023-01-16T03:29:14;13.02;;;4.75;;
58208;SDS011;44006;52.028;4.696;2023-01-16T03:34:13;9.65;;;3.70;;
58208;SDS011;44006;52.028;4.696;2023-01-16T03:39:43;7.78;;;3.05;;
58208;SDS011;44006;52.028;4.696;2023-01-16T03:42:13;7.68;;;2.85;;
58208;SDS011;44006;52.028;4.696;2023-01-16T03:44:47;9.35;;;2.38;;
58208;SDS011;44006;52.028;4.696;2023-01-16T03:47:16;8.35;;;2.60;;
58208;SDS011;44006;52.028;4.696;2023-01-16T03:49:48;6.47;;;2.53;;
58208;SDS011;44006;52.028;4.696;2023-01-16T03:52:15;7.03;;;2.40;;
58208;SDS011;44006;52.028;4.696;2023-01-16T03:54:52;7.75;;;2.38;;
58208;SDS011;44006;52.028;4.696;2023-01-16T03:57:21;9.77;;;2.05;;
58208;SDS011;44006;52.028;4.696;2023-01-16T03:59:47;9.82;;;2.60;;
58208;SDS011;44006;52.028;4.696;2023-01-16T04:04:47;8.85;;;2.08;;
58208;SDS011;44006;52.028;4.696;2023-01-16T04:07:31;8.98;;;1.80;;
58208;SDS011;44006;52.028;4.696;2023-01-16T04:10:01;7.53;;;1.73;;
58208;SDS011;44006;52.028;4.696;2023-01-16T04:12:28;7.03;;;1.73;;
58208;SDS011;44006;52.028;4.696;2023-01-16T04:14:59;5.45;;;1.90;;
58208;SDS011;44006;52.028;4.696;2023-01-16T04:17:24;10.27;;;2.22;;
58208;SDS011;44006;52.028;4.696;2023-01-16T04:19:50;6.60;;;1.70;;
58208;SDS011;44006;52.028;4.696;2023-01-16T04:22:23;8.40;;;2.00;;
58208;SDS011;44006;52.028;4.696;2023-01-16T04:24:49;7.95;;;1.90;;
58208;SDS011;44006;52.028;4.696;2023-01-16T04:27:15;6.75;;;1.83;;
58208;SDS011;44006;52.028;4.696;2023-01-16T04:29:41;7.75;;;2.20;;
58208;SDS011;44006;52.028;4.696;2023-01-16T04:32:06;6.80;;;1.60;;
58208;SDS011;44006;52.028;4.696;2023-01-16T04:34:31;8.27;;;1.85;;
58208;SDS011;44006;52.028;4.696;2023-01-16T04:36:56;6.78;;;1.90;;
58208;SDS011;44006;52.028;4.696;2023-01-16T04:39:22;10.45;;;2.13;;
58208;SDS011;44006;52.028;4.696;2023-01-16T04:41:47;8.43;;;1.95;;
58208;SDS011;44006;52.028;4.696;2023-01-16T04:44:15;6.22;;;2.08;;
58208;SDS011;44006;52.028;4.696;2023-01-16T04:46:41;8.95;;;2.15;;
58208;SDS011;44006;52.028;4.696;2023-01-16T04:49:06;7.13;;;2.00;;
58208;SDS011;44006;52.028;4.696;2023-01-16T04:51:31;8.00;;;1.85;;
58208;SDS011;44006;52.028;4.696;2023-01-16T04:53:56;6.45;;;1.75;;
58208;SDS011;44006;52.028;4.696;2023-01-16T04:56:22;10.05;;;2.10;;
58208;SDS011;44006;52.028;4.696;2023-01-16T04:58:47;10.52;;;2.63;;
58208;SDS011;44006;52.028;4.696;2023-01-16T05:01:12;7.22;;;1.95;;
58208;SDS011;44006;52.028;4.696;2023-01-16T05:03:37;6.28;;;1.92;;
58208;SDS011;44006;52.028;4.696;2023-01-16T05:06:03;8.25;;;2.45;;
58208;SDS011;44006;52.028;4.696;2023-01-16T05:08:28;9.25;;;2.78;;
58208;SDS011;44006;52.028;4.696;2023-01-16T05:10:54;4.95;;;1.88;;
58208;SDS011;44006;52.028;4.696;2023-01-16T05:13:19;6.28;;;2.30;;
58208;SDS011;44006;52.028;4.696;2023-01-16T05:15:44;7.30;;;2.08;;
58208;SDS011;44006;52.028;4.696;2023-01-16T05:18:10;8.02;;;2.63;;
58208;SDS011;44006;52.028;4.696;2023-01-16T05:20:36;8.27;;;2.08;;
58208;SDS011;44006;52.028;4.696;2023-01-16T05:23:02;11.30;;;2.10;;
58208;SDS011;44006;52.028;4.696;2023-01-16T05:25:27;6.75;;;1.88;;
58208;SDS011;44006;52.028;4.696;2023-01-16T05:27:52;8.00;;;2.25;;
58208;SDS011;44006;52.028;4.696;2023-01-16T05:30:17;6.20;;;2.15;;
58208;SDS011;44006;52.028;4.696;2023-01-16T05:32:43;8.00;;;2.20;;
58208;SDS011;44006;52.028;4.696;2023-01-16T05:35:08;8.75;;;2.20;;
58208;SDS011;44006;52.028;4.696;2023-01-16T05:37:34;15.57;;;2.13;;
58208;SDS011;44006;52.028;4.696;2023-01-16T05:39:59;9.00;;;2.53;;
58208;SDS011;44006;52.028;4.696;2023-01-16T05:42:24;11.63;;;2.70;;
58208;SDS011;44006;52.028;4.696;2023-01-16T05:44:50;7.32;;;2.08;;
58208;SDS011;44006;52.028;4.696;2023-01-16T05:47:16;6.38;;;2.28;;
58208;SDS011;44006;52.028;4.696;2023-01-16T05:49:41;9.18;;;2.53;;
58208;SDS011;44006;52.028;4.696;2023-01-16T05:52:06;17.70;;;6.40;;
58208;SDS011;44006;52.028;4.696;2023-01-16T05:54:32;8.85;;;2.42;;
58208;SDS011;44006;52.028;4.696;2023-01-16T05:56:57;8.80;;;2.58;;
58208;SDS011;44006;52.028;4.696;2023-01-16T05:59:22;9.90;;;2.67;;
58208;SDS011;44006;52.028;4.696;2023-01-16T06:01:47;12.00;;;2.58;;
58208;SDS011;44006;52.028;4.696;2023-01-16T06:04:13;13.25;;;3.03;;
58208;SDS011;44006;52.028;4.696;2023-01-16T06:06:38;7.57;;;2.90;;
58208;SDS011;44006;52.028;4.696;2023-01-16T06:09:03;8.80;;;2.88;;
58208;SDS011;44006;52.028;4.696;2023-01-16T06:11:28;8.40;;;2.55;;
58208;SDS011;44006;52.028;4.696;2023-01-16T06:13:53;9.50;;;2.50;;
58208;SDS011;44006;52.028;4.696;2023-01-16T06:16:19;9.07;;;2.80;;
58208;SDS011;44006;52.028;4.696;2023-01-16T06:18:44;13.18;;;2.30;;
58208;SDS011;44006;52.028;4.696;2023-01-16T06:21:09;12.80;;;2.40;;
58208;SDS011;44006;52.028;4.696;2023-01-16T06:23:35;6.22;;;2.15;;
58208;SDS011;44006;52.028;4.696;2023-01-16T06:26:00;10.02;;;2.35;;
58208;SDS011;44006;52.028;4.696;2023-01-16T06:28:27;12.10;;;2.83;;
58208;SDS011;44006;52.028;4.696;2023-01-16T06:30:53;11.57;;;2.80;;
58208;SDS011;44006;52.028;4.696;2023-01-16T06:33:18;11.32;;;2.67;;
58208;SDS011;44006;52.028;4.696;2023-01-16T06:35:43;8.65;;;2.72;;
58208;SDS011;44006;52.028;4.696;2023-01-16T06:38:09;7.60;;;2.33;;
58208;SDS011;44006;52.028;4.696;2023-01-16T06:40:34;8.15;;;2.30;;
58208;SDS011;44006;52.028;4.696;2023-01-16T06:42:59;8.40;;;2.50;;
58208;SDS011;44006;52.028;4.696;2023-01-16T06:45:24;12.18;;;2.63;;
58208;SDS011;44006;52.028;4.696;2023-01-16T06:47:50;11.75;;;2.60;;
58208;SDS011;44006;52.028;4.696;2023-01-16T06:50:16;11.00;;;2.70;;
58208;SDS011;44006;52.028;4.696;2023-01-16T06:52:42;13.45;;;2.33;;
58208;SDS011;44006;52.028;4.696;2023-01-16T06:55:07;11.15;;;2.50;;
58208;SDS011;44006;52.028;4.696;2023-01-16T06:57:34;9.98;;;2.55;;
58208;SDS011;44006;52.028;4.696;2023-01-16T06:59:59;9.57;;;3.00;;
58208;SDS011;44006;52.028;4.696;2023-01-16T07:02:24;12.20;;;3.08;;
58208;SDS011;44006;52.028;4.696;2023-01-16T07:04:49;12.80;;;2.63;;
58208;SDS011;44006;52.028;4.696;2023-01-16T07:07:14;12.13;;;2.45;;
58208;SDS011;44006;52.028;4.696;2023-01-16T07:09:40;8.73;;;2.67;;
58208;SDS011;44006;52.028;4.696;2023-01-16T07:12:05;12.95;;;2.95;;
58208;SDS011;44006;52.028;4.696;2023-01-16T07:14:30;13.07;;;2.85;;
58208;SDS011;44006;52.028;4.696;2023-01-16T07:17:14;12.02;;;2.90;;
58208;SDS011;44006;52.028;4.696;2023-01-16T07:19:58;12.82;;;2.70;;
58208;SDS011;44006;52.028;4.696;2023-01-16T07:22:42;7.35;;;3.03;;
58208;SDS011;44006;52.028;4.696;2023-01-16T07:25:18;11.43;;;3.05;;
58208;SDS011;44006;52.028;4.696;2023-01-16T07:27:45;9.43;;;3.05;;
58208;SDS011;44006;52.028;4.696;2023-01-16T07:30:12;9.50;;;2.83;;
58208;SDS011;44006;52.028;4.696;2023-01-16T07:32:38;10.95;;;3.15;;
58208;SDS011;44006;52.028;4.696;2023-01-16T07:35:03;10.02;;;3.05;;
58208;SDS011;44006;52.028;4.696;2023-01-16T07:37:29;7.63;;;2.70;;
58208;SDS011;44006;52.028;4.696;2023-01-16T07:39:54;10.82;;;2.80;;
58208;SDS011;44006;52.028;4.696;2023-01-16T07:42:19;12.25;;;2.92;;
58208;SDS011;44006;52.028;4.696;2023-01-16T07:44:44;10.48;;;3.05;;
58208;SDS011;44006;52.028;4.696;2023-01-16T07:47:10;11.85;;;3.30;;
58208;SDS011;44006;52.028;4.696;2023-01-16T07:49:37;10.55;;;3.20;;
58208;SDS011;44006;52.028;4.696;2023-01-16T07:52:02;10.45;;;2.55;;
58208;SDS011;44006;52.028;4.696;2023-01-16T07:54:28;8.45;;;2.63;;
58208;SDS011;44006;52.028;4.696;2023-01-16T07:56:53;11.48;;;3.00;;
58208;SDS011;44006;52.028;4.696;2023-01-16T07:59:18;7.93;;;2.30;;
58208;SDS011;44006;52.028;4.696;2023-01-16T08:01:43;10.52;;;2.55;;
58208;SDS011;44006;52.028;4.696;2023-01-16T08:04:10;9.55;;;2.65;;
58208;SDS011;44006;52.028;4.696;2023-01-16T08:06:36;11.70;;;2.30;;
58208;SDS011;44006;52.028;4.696;2023-01-16T08:09:02;8.82;;;2.40;;
58208;SDS011;44006;52.028;4.696;2023-01-16T08:11:27;5.45;;;1.90;;
58208;SDS011;44006;52.028;4.696;2023-01-16T08:14:02;10.38;;;2.00;;
58208;SDS011;44006;52.028;4.696;2023-01-16T08:16:27;11.55;;;2.05;;
58208;SDS011;44006;52.028;4.696;2023-01-16T08:18:52;8.45;;;2.17;;
58208;SDS011;44006;52.028;4.696;2023-01-16T08:21:18;6.10;;;1.88;;
58208;SDS011;44006;52.028;4.696;2023-01-16T08:23:43;8.23;;;1.92;;
58208;SDS011;44006;52.028;4.696;2023-01-16T08:26:10;7.80;;;1.73;;
58208;SDS011;44006;52.028;4.696;2023-01-16T08:28:35;7.00;;;2.03;;
58208;SDS011;44006;52.028;4.696;2023-01-16T08:31:04;8.38;;;1.90;;
58208;SDS011;44006;52.028;4.696;2023-01-16T08:33:32;13.30;;;2.55;;
58208;SDS011;44006;52.028;4.696;2023-01-16T08:35:58;12.10;;;2.47;;
58208;SDS011;44006;52.028;4.696;2023-01-16T08:38:24;10.07;;;2.50;;
58208;SDS011;44006;52.028;4.696;2023-01-16T08:40:50;6.38;;;2.53;;
58208;SDS011;44006;52.028;4.696;2023-01-16T08:43:16;9.32;;;2.90;;
58208;SDS011;44006;52.028;4.696;2023-01-16T08:46:00;10.70;;;2.67;;
58208;SDS011;44006;52.028;4.696;2023-01-16T08:48:52;5.95;;;3.13;;
58208;SDS011;44006;52.028;4.696;2023-01-16T08:51:36;7.70;;;3.10;;
58208;SDS011;44006;52.028;4.696;2023-01-16T08:54:02;9.23;;;3.00;;
58208;SDS011;44006;52.028;4.696;2023-01-16T08:56:27;11.20;;;3.60;;
58208;SDS011;44006;52.028;4.696;2023-01-16T08:58:52;6.20;;;3.42;;
58208;SDS011;44006;52.028;4.696;2023-01-16T09:03:52;7.97;;;3.65;;
58208;SDS011;44006;52.028;4.696;2023-01-16T09:06:17;7.78;;;3.40;;
58208;SDS011;44006;52.028;4.696;2023-01-16T09:08:43;10.27;;;4.00;;
58208;SDS011;44006;52.028;4.696;2023-01-16T09:11:08;7.70;;;4.07;;
58208;SDS011;44006;52.028;4.696;2023-01-16T09:13:53;10.52;;;3.90;;
58208;SDS011;44006;52.028;4.696;2023-01-16T09:16:19;9.68;;;4.07;;
58208;SDS011;44006;52.028;4.696;2023-01-16T09:18:45;8.13;;;3.72;;
58208;SDS011;44006;52.028;4.696;2023-01-16T09:21:10;8.35;;;4.00;;
58208;SDS011;44006;52.028;4.696;2023-01-16T09:23:35;8.38;;;4.07;;
58208;SDS011;44006;52.028;4.696;2023-01-16T09:26:00;11.00;;;4.18;;
58208;SDS011;44006;52.028;4.696;2023-01-16T09:28:26;8.15;;;4.00;;
58208;SDS011;44006;52.028;4.696;2023-01-16T09:30:51;8.70;;;3.88;;
58208;SDS011;44006;52.028;4.696;2023-01-16T09:33:16;9.05;;;3.72;;
58208;SDS011;44006;52.028;4.696;2023-01-16T09:35:44;7.65;;;3.83;;
58208;SDS011;44006;52.028;4.696;2023-01-16T09:38:09;8.52;;;3.85;;
58208;SDS011;44006;52.028;4.696;2023-01-16T09:40:34;8.75;;;3.85;;
58208;SDS011;44006;52.028;4.696;2023-01-16T09:45:44;10.88;;;3.85;;
58208;SDS011;44006;52.028;4.696;2023-01-16T09:48:14;7.32;;;4.00;;
58208;SDS011;44006;52.028;4.696;2023-01-16T09:50:43;9.23;;;3.70;;
58208;SDS011;44006;52.028;4.696;2023-01-16T09:53:13;10.68;;;3.63;;
58208;SDS011;44006;52.028;4.696;2023-01-16T09:55:57;10.40;;;3.67;;
58208;SDS011;44006;52.028;4.696;2023-01-16T10:01:38;12.00;;;3.83;;
58208;SDS011;44006;52.028;4.696;2023-01-16T10:04:17;11.63;;;4.07;;
58208;SDS011;44006;52.028;4.696;2023-01-16T10:09:24;6.70;;;3.50;;
58208;SDS011;44006;52.028;4.696;2023-01-16T10:11:57;10.02;;;3.90;;
58208;SDS011;44006;52.028;4.696;2023-01-16T10:17:04;8.13;;;3.50;;
58208;SDS011;44006;52.028;4.696;2023-01-16T10:19:39;8.50;;;3.17;;
58208;SDS011;44006;52.028;4.696;2023-01-16T10:24:52;7.93;;;3.30;;
58208;SDS011;44006;52.028;4.696;2023-01-16T10:27:28;5.85;;;3.70;;
58208;SDS011;44006;52.028;4.696;2023-01-16T10:32:43;7.55;;;3.60;;
58208;SDS011;44006;52.028;4.696;2023-01-16T10:35:15;5.28;;;2.95;;
58208;SDS011;44006;52.028;4.696;2023-01-16T10:37:41;7.88;;;3.47;;
58208;SDS011;44006;52.028;4.696;2023-01-16T10:40:10;6.95;;;3.50;;
58208;SDS011;44006;52.028;4.696;2023-01-16T10:42:38;7.93;;;3.83;;
58208;SDS011;44006;52.028;4.696;2023-01-16T10:45:25;7.38;;;3.67;;
58208;SDS011;44006;52.028;4.696;2023-01-16T10:48:14;6.55;;;3.65;;
58208;SDS011;44006;52.028;4.696;2023-01-16T10:50:58;5.20;;;3.38;;
58208;SDS011;44006;52.028;4.696;2023-01-16T10:53:24;8.95;;;3.88;;
58208;SDS011;44006;52.028;4.696;2023-01-16T10:55:50;5.93;;;3.75;;
58208;SDS011;44006;52.028;4.696;2023-01-16T10:58:26;8.25;;;3.70;;
58208;SDS011;44006;52.028;4.696;2023-01-16T11:01:00;9.00;;;3.70;;
58208;SDS011;44006;52.028;4.696;2023-01-16T11:03:28;6.47;;;3.35;;
58208;SDS011;44006;52.028;4.696;2023-01-16T11:06:10;7.88;;;3.65;;
58208;SDS011;44006;52.028;4.696;2023-01-16T11:08:35;6.90;;;3.55;;
58208;SDS011;44006;52.028;4.696;2023-01-16T11:11:01;4.85;;;3.20;;
58208;SDS011;44006;52.028;4.696;2023-01-16T11:13:27;6.95;;;3.22;;
58208;SDS011;44006;52.028;4.696;2023-01-16T11:18:55;6.15;;;3.17;;
58208;SDS011;44006;52.028;4.696;2023-01-16T11:21:30;6.22;;;2.97;;
58208;SDS011;44006;52.028;4.696;2023-01-16T11:24:01;7.90;;;2.70;;
58208;SDS011;44006;52.028;4.696;2023-01-16T11:28:56;5.05;;;2.70;;
58208;SDS011;44006;52.028;4.696;2023-01-16T11:31:22;5.63;;;2.88;;
58208;SDS011;44006;52.028;4.696;2023-01-16T11:34:00;7.13;;;2.97;;
58208;SDS011;44006;52.028;4.696;2023-01-16T11:36:29;6.57;;;2.80;;
58208;SDS011;44006;52.028;4.696;2023-01-16T11:38:55;5.80;;;2.80;;
58208;SDS011;44006;52.028;4.696;2023-01-16T11:41:22;5.15;;;2.80;;
58208;SDS011;44006;52.028;4.696;2023-01-16T11:46:51;6.03;;;2.75;;
58208;SDS011;44006;52.028;4.696;2023-01-16T11:49:24;5.25;;;2.17;;
58208;SDS011;44006;52.028;4.696;2023-01-16T11:51:51;6.75;;;2.10;;
58208;SDS011;44006;52.028;4.696;2023-01-16T11:54:18;4.13;;;2.17;;
58208;SDS011;44006;52.028;4.696;2023-01-16T11:56:49;2.92;;;1.77;;
58208;SDS011;44006;52.028;4.696;2023-01-16T12:04:24;2.58;;;1.67;;
58208;SDS011;44006;52.028;4.696;2023-01-16T12:09:54;3.67;;;1.50;;
58208;SDS011;44006;52.028;4.696;2023-01-16T12:12:30;2.90;;;1.70;;
58208;SDS011;44006;52.028;4.696;2023-01-16T12:15:23;2.30;;;1.70;;
58208;SDS011;44006;52.028;4.696;2023-01-16T12:18:03;3.80;;;1.90;;
58208;SDS011;44006;52.028;4.696;2023-01-16T12:26:26;7.63;;;2.40;;
58208;SDS011;44006;52.028;4.696;2023-01-16T12:39:21;4.13;;;2.20;;
58208;SDS011;44006;52.028;4.696;2023-01-16T12:41:56;5.97;;;2.33;;
58208;SDS011;44006;52.028;4.696;2023-01-16T12:44:45;5.10;;;2.50;;
58208;SDS011;44006;52.028;4.696;2023-01-16T12:47:17;3.80;;;2.47;;
58208;SDS011;44006;52.028;4.696;2023-01-16T12:50:01;5.75;;;3.38;;
58208;SDS011;44006;52.028;4.696;2023-01-16T12:57:34;5.43;;;3.20;;
58208;SDS011;44006;52.028;4.696;2023-01-16T13:00:02;7.05;;;3.47;;
58208;SDS011;44006;52.028;4.696;2023-01-16T13:02:31;6.82;;;3.33;;
58208;SDS011;44006;52.028;4.696;2023-01-16T13:05:01;6.27;;;4.47;;
58208;SDS011;44006;52.028;4.696;2023-01-16T13:07:28;9.02;;;3.60;;
58208;SDS011;44006;52.028;4.696;2023-01-16T13:12:53;5.60;;;3.42;;
58208;SDS011;44006;52.028;4.696;2023-01-16T13:15:39;6.05;;;3.45;;
58208;SDS011;44006;52.028;4.696;2023-01-16T13:18:16;7.57;;;4.20;;
58208;SDS011;44006;52.028;4.696;2023-01-16T13:20:43;5.70;;;3.45;;
58208;SDS011;44006;52.028;4.696;2023-01-16T13:23:17;6.45;;;4.00;;
58208;SDS011;44006;52.028;4.696;2023-01-16T13:25:48;6.75;;;3.75;;
58208;SDS011;44006;52.028;4.696;2023-01-16T13:28:17;8.60;;;4.53;;
58208;SDS011;44006;52.028;4.696;2023-01-16T13:30:44;4.88;;;4.00;;
58208;SDS011;44006;52.028;4.696;2023-01-16T13:33:10;7.63;;;4.75;;
58208;SDS011;44006;52.028;4.696;2023-01-16T13:35:43;7.10;;;4.10;;
58208;SDS011;44006;52.028;4.696;2023-01-16T13:40:53;6.30;;;4.18;;
58208;SDS011;44006;52.028;4.696;2023-01-16T13:43:23;6.70;;;4.50;;
58208;SDS011;44006;52.028;4.696;2023-01-16T13:46:08;5.20;;;3.80;;
58208;SDS011;44006;52.028;4.696;2023-01-16T13:48:34;4.97;;;4.20;;
58208;SDS011;44006;52.028;4.696;2023-01-16T13:51:02;5.45;;;4.07;;
58208;SDS011;44006;52.028;4.696;2023-01-16T13:53:28;6.28;;;4.32;;
58208;SDS011;44006;52.028;4.696;2023-01-16T13:56:02;7.50;;;4.55;;
58208;SDS011;44006;52.028;4.696;2023-01-16T13:58:30;5.60;;;4.35;;
58208;SDS011;44006;52.028;4.696;2023-01-16T14:00:59;5.78;;;4.65;;
58208;SDS011;44006;52.028;4.696;2023-01-16T14:03:26;6.82;;;4.55;;
58208;SDS011;44006;52.028;4.696;2023-01-16T14:08:45;6.82;;;4.40;;
58208;SDS011;44006;52.028;4.696;2023-01-16T14:14:27;6.05;;;4.45;;
58208;SDS011;44006;52.028;4.696;2023-01-16T14:17:08;6.63;;;4.60;;
58208;SDS011;44006;52.028;4.696;2023-01-16T14:19:37;5.63;;;4.30;;
58208;SDS011;44006;52.028;4.696;2023-01-16T14:22:03;5.57;;;4.50;;
58208;SDS011;44006;52.028;4.696;2023-01-16T14:24:38;6.32;;;4.30;;
58208;SDS011;44006;52.028;4.696;2023-01-16T14:27:04;6.95;;;4.95;;
58208;SDS011;44006;52.028;4.696;2023-01-16T14:29:30;6.82;;;5.35;;
58208;SDS011;44006;52.028;4.696;2023-01-16T14:31:59;8.18;;;5.05;;
58208;SDS011;44006;52.028;4.696;2023-01-16T14:34:26;6.55;;;5.10;;
58208;SDS011;44006;52.028;4.696;2023-01-16T14:36:54;6.68;;;4.88;;
58208;SDS011;44006;52.028;4.696;2023-01-16T14:39:26;6.68;;;5.15;;
58208;SDS011;44006;52.028;4.696;2023-01-16T14:41:52;8.20;;;5.18;;
58208;SDS011;44006;52.028;4.696;2023-01-16T14:44:57;6.75;;;4.95;;
58208;SDS011;44006;52.028;4.696;2023-01-16T14:47:45;7.60;;;4.88;;
58208;SDS011;44006;52.028;4.696;2023-01-16T14:50:44;8.57;;;4.80;;
58208;SDS011;44006;52.028;4.696;2023-01-16T14:53:33;8.95;;;4.97;;
58208;SDS011;44006;52.028;4.696;2023-01-16T14:56:24;7.97;;;5.40;;
58208;SDS011;44006;52.028;4.696;2023-01-16T14:58:52;8.90;;;5.75;;
58208;SDS011;44006;52.028;4.696;2023-01-16T15:01:21;10.18;;;5.75;;
58208;SDS011;44006;52.028;4.696;2023-01-16T15:04:07;10.63;;;6.00;;
58208;SDS011;44006;52.028;4.696;2023-01-16T15:06:35;9.63;;;6.45;;
58208;SDS011;44006;52.028;4.696;2023-01-16T15:09:01;10.02;;;5.95;;
58208;SDS011;44006;52.028;4.696;2023-01-16T15:11:29;11.18;;;6.70;;
58208;SDS011;44006;52.028;4.696;2023-01-16T15:20:00;10.27;;;7.50;;
58208;SDS011;44006;52.028;4.696;2023-01-16T15:22:46;12.55;;;7.60;;
58208;SDS011;44006;52.028;4.696;2023-01-16T15:27:37;12.30;;;8.43;;
58208;SDS011;44006;52.028;4.696;2023-01-16T15:30:04;10.95;;;8.20;;
58208;SDS011;44006;52.028;4.696;2023-01-16T15:32:30;12.40;;;7.90;;
58208;SDS011;44006;52.028;4.696;2023-01-16T15:35:16;12.50;;;8.25;;
58208;SDS011;44006;52.028;4.696;2023-01-16T15:37:49;11.55;;;8.20;;
58208;SDS011;44006;52.028;4.696;2023-01-16T15:42:46;14.90;;;9.25;;
58208;SDS011;44006;52.028;4.696;2023-01-16T15:45:31;9.95;;;7.13;;
58208;SDS011;44006;52.028;4.696;2023-01-16T15:53:26;4.95;;;2.85;;
58208;SDS011;44006;52.028;4.696;2023-01-16T15:56:00;3.90;;;2.28;;
58208;SDS011;44006;52.028;4.696;2023-01-16T15:58:25;4.15;;;1.60;;
58208;SDS011;44006;52.028;4.696;2023-01-16T16:00:58;3.33;;;1.73;;
58208;SDS011;44006;52.028;4.696;2023-01-16T16:03:27;3.65;;;1.58;;
58208;SDS011;44006;52.028;4.696;2023-01-16T16:05:54;2.67;;;1.25;;
58208;SDS011;44006;52.028;4.696;2023-01-16T16:08:21;1.92;;;1.20;;
58208;SDS011;44006;52.028;4.696;2023-01-16T16:10:47;2.88;;;1.05;;
58208;SDS011;44006;52.028;4.696;2023-01-16T16:13:32;2.53;;;1.10;;
58208;SDS011;44006;52.028;4.696;2023-01-16T16:15:59;3.03;;;1.25;;
58208;SDS011;44006;52.028;4.696;2023-01-16T16:19:01;2.17;;;1.15;;
58208;SDS011;44006;52.028;4.696;2023-01-16T16:21:28;1.40;;;0.90;;
58208;SDS011;44006;52.028;4.696;2023-01-16T16:24:02;3.15;;;0.80;;
58208;SDS011;44006;52.028;4.696;2023-01-16T16:26:29;2.13;;;0.63;;
58208;SDS011;44006;52.028;4.696;2023-01-16T16:28:55;2.38;;;1.25;;
58208;SDS011;44006;52.028;4.696;2023-01-16T16:31:27;1.45;;;1.02;;
58208;SDS011;44006;52.028;4.696;2023-01-16T16:34:14;1.52;;;0.80;;
58208;SDS011;44006;52.028;4.696;2023-01-16T16:36:42;2.28;;;1.45;;
58208;SDS011;44006;52.028;4.696;2023-01-16T16:41:52;3.47;;;1.63;;
58208;SDS011;44006;52.028;4.696;2023-01-16T16:44:37;4.50;;;1.77;;
58208;SDS011;44006;52.028;4.696;2023-01-16T16:47:08;2.45;;;1.42;;
58208;SDS011;44006;52.028;4.696;2023-01-16T16:49:38;3.17;;;1.42;;
58208;SDS011;44006;52.028;4.696;2023-01-16T16:52:19;2.60;;;1.50;;
58208;SDS011;44006;52.028;4.696;2023-01-16T16:54:50;2.22;;;1.20;;
58208;SDS011;44006;52.028;4.696;2023-01-16T16:57:16;2.13;;;1.23;;
58208;SDS011;44006;52.028;4.696;2023-01-16T16:59:41;5.82;;;1.80;;
58208;SDS011;44006;52.028;4.696;2023-01-16T17:02:08;1.55;;;1.00;;
58208;SDS011;44006;52.028;4.696;2023-01-16T17:04:34;2.25;;;1.30;;